Time;durP1;ratioP1;P1;durP2;ratioP2;P2;SDS_P1;SDS_P2;PMS_P1;PMS_P2;Temp;Humidity;BMP_temperature;BMP_pressure;BME280_temperature;BME280_humidity;BME280_pressure;Samples;Min_cycle;Max_cycle;Signal;HPM_P1;HPM_P2
2021/07/27 00:00:37;;;;;;;13.57;8.10;;;23.00;99.90;;;;;;4207455;28;20475;-62
2021/07/27 00:02:38;;;;;;;12.98;7.70;;;23.00;99.90;;;;;;4207672;28;20450;-61
2021/07/27 00:04:39;;;;;;;12.77;7.93;;;23.00;99.90;;;;;;4207648;28;20081;-62
2021/07/27 00:06:40;;;;;;;16.23;7.55;;;23.00;99.90;;;;;;4207360;28;20028;-62
2021/07/27 00:08:41;;;;;;;13.25;7.95;;;23.00;99.90;;;;;;4207895;28;20430;-62
2021/07/27 00:10:42;;;;;;;9.27;7.35;;;22.90;99.90;;;;;;4207491;28;20040;-62
2021/07/27 00:12:44;;;;;;;13.02;7.35;;;22.90;99.90;;;;;;4207751;28;20125;-62
2021/07/27 00:14:45;;;;;;;10.80;8.07;;;22.90;99.90;;;;;;4207276;28;20040;-62
2021/07/27 00:16:46;;;;;;;11.77;8.02;;;22.90;99.90;;;;;;4206285;28;20090;-62
2021/07/27 00:18:47;;;;;;;10.60;7.40;;;22.90;99.90;;;;;;4207387;28;20024;-62
2021/07/27 00:20:48;;;;;;;10.60;7.57;;;22.90;99.90;;;;;;4206774;28;20152;-61
2021/07/27 00:22:49;;;;;;;13.82;7.93;;;22.90;99.90;;;;;;4207036;28;20028;-62
2021/07/27 00:24:52;;;;;;;11.43;7.72;;;22.90;99.90;;;;;;4207035;28;20419;-62
2021/07/27 00:26:54;;;;;;;10.25;7.63;;;22.90;99.90;;;;;;4206655;28;20070;-63
2021/07/27 00:28:55;;;;;;;9.18;7.22;;;22.90;99.90;;;;;;4206729;28;20077;-62
2021/07/27 00:30:57;;;;;;;14.68;8.38;;;22.90;99.90;;;;;;4207163;28;20090;-62
2021/07/27 00:32:58;;;;;;;13.73;7.53;;;22.80;99.90;;;;;;4207561;28;20595;-62
2021/07/27 00:34:59;;;;;;;10.65;7.07;;;22.80;99.90;;;;;;4207027;28;20085;-62
2021/07/27 00:37:00;;;;;;;14.38;7.55;;;22.80;99.90;;;;;;4206855;28;20109;-62
2021/07/27 00:39:01;;;;;;;11.75;8.35;;;22.80;99.90;;;;;;4206805;28;20073;-62
2021/07/27 00:41:03;;;;;;;14.10;7.78;;;22.80;99.90;;;;;;4207177;28;20036;-62
2021/07/27 00:43:05;;;;;;;9.48;7.50;;;22.80;99.90;;;;;;4206628;28;20690;-62
2021/07/27 00:45:07;;;;;;;12.63;7.75;;;22.70;99.90;;;;;;4206930;28;20051;-62
2021/07/27 00:47:08;;;;;;;10.43;7.45;;;22.60;99.90;;;;;;4205006;28;20033;-63
2021/07/27 00:49:10;;;;;;;14.18;8.27;;;22.60;99.90;;;;;;4206904;28;20543;-62
2021/07/27 00:51:11;;;;;;;11.32;8.05;;;22.50;99.90;;;;;;4206676;28;20036;-63
2021/07/27 00:53:14;;;;;;;11.50;8.38;;;22.40;99.90;;;;;;4206311;28;20541;-62
2021/07/27 00:55:15;;;;;;;14.02;8.85;;;22.40;99.90;;;;;;4206744;28;20518;-62
2021/07/27 00:57:16;;;;;;;16.90;8.85;;;22.30;99.90;;;;;;4206897;28;20520;-62
2021/07/27 00:59:17;;;;;;;21.73;8.57;;;22.20;99.90;;;;;;4206896;28;20044;-62
2021/07/27 01:01:19;;;;;;;11.55;8.30;;;22.20;99.90;;;;;;4206452;28;20028;-62
2021/07/27 01:03:20;;;;;;;14.00;9.05;;;22.10;99.90;;;;;;4206999;28;20081;-63
2021/07/27 01:05:24;;;;;;;16.65;8.35;;;22.00;99.90;;;;;;4206439;28;21037;-61
2021/07/27 01:07:26;;;;;;;11.60;8.45;;;21.90;99.90;;;;;;4206318;28;20429;-62
2021/07/27 01:09:28;;;;;;;17.42;9.02;;;21.70;99.90;;;;;;4206446;28;20028;-62
2021/07/27 01:11:29;;;;;;;14.48;8.00;;;21.60;99.90;;;;;;4206458;28;20557;-62
2021/07/27 01:13:30;;;;;;;14.55;9.55;;;21.60;99.90;;;;;;4206474;28;20020;-62
2021/07/27 01:15:31;;;;;;;11.80;8.57;;;21.60;99.90;;;;;;4206058;28;20031;-63
2021/07/27 01:17:32;;;;;;;12.05;7.97;;;21.60;99.90;;;;;;4206142;28;20035;-62
2021/07/27 01:19:47;;;;;;;21.77;9.30;;;21.60;99.90;;;;;;4206532;28;20442;-62
2021/07/27 01:38:14;;;;;;;13.57;7.80;;;21.50;99.90;;;;;;4205588;28;20101;-62
2021/07/27 01:40:17;;;;;;;13.25;8.20;;;21.60;99.90;;;;;;4206353;28;20039;-63
2021/07/27 01:42:20;;;;;;;12.63;8.70;;;21.60;99.90;;;;;;4203925;28;20047;-62
2021/07/27 01:44:21;;;;;;;12.48;8.75;;;21.60;99.90;;;;;;4205734;28;20088;-62
2021/07/27 01:46:23;;;;;;;15.00;9.07;;;21.60;99.90;;;;;;4205701;28;21124;-63
2021/07/27 01:48:27;;;;;;;9.80;7.30;;;21.50;99.90;;;;;;4205833;28;20032;-62
2021/07/27 01:50:28;;;;;;;12.13;7.60;;;21.50;99.90;;;;;;4205726;28;20035;-63
2021/07/27 01:52:29;;;;;;;14.20;8.35;;;21.50;99.90;;;;;;4205603;28;20032;-63
2021/07/27 01:54:45;;;;;;;14.25;7.80;;;21.60;99.90;;;;;;4205949;28;20093;-63
2021/07/27 01:56:47;;;;;;;14.18;9.50;;;21.60;99.90;;;;;;4206098;28;20056;-63
2021/07/27 01:58:49;;;;;;;12.43;8.50;;;21.60;99.90;;;;;;4205509;28;20027;-63
2021/07/27 02:00:50;;;;;;;12.95;8.90;;;21.60;99.90;;;;;;4204845;28;20081;-63
2021/07/27 02:02:51;;;;;;;14.68;8.57;;;21.50;99.90;;;;;;4205923;28;20641;-62
2021/07/27 02:04:53;;;;;;;11.18;7.70;;;21.40;99.90;;;;;;4204435;28;20028;-62
2021/07/27 02:06:54;;;;;;;11.93;7.85;;;21.40;99.90;;;;;;4205739;28;20043;-62
2021/07/27 02:09:00;;;;;;;13.75;7.78;;;21.50;99.90;;;;;;4205521;28;20073;-62
2021/07/27 02:11:07;;;;;;;13.05;8.10;;;21.50;99.90;;;;;;4205684;28;20502;-62
2021/07/27 02:13:16;;;;;;;11.02;8.60;;;21.50;99.90;;;;;;4205688;28;20048;-62
2021/07/27 02:15:19;;;;;;;15.15;8.38;;;21.50;99.90;;;;;;4205289;28;20040;-62
2021/07/27 02:17:20;;;;;;;9.68;8.13;;;21.30;99.90;;;;;;4205177;28;20097;-62
2021/07/27 02:19:21;;;;;;;16.05;9.18;;;21.30;99.90;;;;;;4205610;28;20088;-62
2021/07/27 02:21:22;;;;;;;16.13;8.98;;;21.30;99.90;;;;;;4205788;28;20032;-62
2021/07/27 02:23:26;;;;;;;14.05;8.27;;;21.20;99.90;;;;;;4205444;28;20040;-61
2021/07/27 02:25:28;;;;;;;13.85;8.63;;;21.30;99.90;;;;;;4188807;28;20545;-62
2021/07/27 02:27:29;;;;;;;12.05;8.90;;;21.30;99.90;;;;;;4188817;28;20066;-63
2021/07/27 02:29:30;;;;;;;10.60;8.57;;;21.30;99.90;;;;;;4194976;28;20385;-62
2021/07/27 02:31:40;;;;;;;13.95;9.15;;;21.30;99.90;;;;;;4205476;28;20361;-63
2021/07/27 02:33:42;;;;;;;;;;;21.30;99.90;;;;;;4205948;28;20848;-62
2021/07/27 02:35:43;;;;;;;18.60;9.48;;;21.20;99.90;;;;;;4205631;28;19947;-62
2021/07/27 02:37:44;;;;;;;17.33;10.10;;;21.10;99.90;;;;;;4206167;28;20044;-62
2021/07/27 02:39:45;;;;;;;17.70;10.30;;;21.10;99.90;;;;;;4205223;28;20036;-62
2021/07/27 02:41:46;;;;;;;19.52;10.75;;;21.10;99.90;;;;;;4205137;28;20117;-62
2021/07/27 02:43:47;;;;;;;13.45;9.63;;;21.10;99.90;;;;;;4205197;28;20480;-62
2021/07/27 02:45:48;;;;;;;20.23;9.27;;;21.10;99.90;;;;;;4205097;28;20889;-62
2021/07/27 02:47:49;;;;;;;18.13;9.88;;;21.10;99.90;;;;;;4205328;28;20036;-63
2021/07/27 02:49:51;;;;;;;13.85;9.20;;;21.10;99.90;;;;;;4205053;28;20434;-63
2021/07/27 02:51:53;;;;;;;13.23;8.50;;;21.20;99.90;;;;;;4205033;28;20036;-61
2021/07/27 02:53:54;;;;;;;13.57;8.25;;;21.20;99.90;;;;;;4204839;28;20020;-62
2021/07/27 02:55:55;;;;;;;12.70;8.05;;;21.20;99.90;;;;;;4205025;28;20082;-62
2021/07/27 02:57:58;;;;;;;13.85;8.27;;;21.20;99.90;;;;;;4205048;28;20040;-62
2021/07/27 03:00:00;;;;;;;10.70;8.00;;;21.30;99.90;;;;;;4205050;28;20036;-62
2021/07/27 03:02:02;;;;;;;15.63;8.35;;;21.30;99.90;;;;;;4205495;28;20040;-62
2021/07/27 03:04:03;;;;;;;15.90;7.80;;;21.30;99.90;;;;;;4205802;28;20085;-62
2021/07/27 03:06:04;;;;;;;11.18;7.70;;;21.30;99.90;;;;;;4205143;28;20073;-62
2021/07/27 03:08:11;;;;;;;16.00;8.40;;;21.30;99.90;;;;;;4205649;28;20036;-61
2021/07/27 03:10:20;;;;;;;33.17;9.10;;;21.40;99.90;;;;;;4205313;28;20040;-62
2021/07/27 03:12:21;;;;;;;17.77;9.43;;;21.40;99.90;;;;;;4204529;28;20070;-62
2021/07/27 03:14:24;;;;;;;17.33;9.95;;;21.40;99.90;;;;;;4205035;28;20028;-63
2021/07/27 03:16:26;;;;;;;16.35;9.88;;;21.40;99.90;;;;;;4205781;28;20086;-62
2021/07/27 03:18:27;;;;;;;16.13;9.88;;;21.30;99.90;;;;;;4208037;28;20145;-63
2021/07/27 03:20:29;;;;;;;17.05;9.57;;;21.20;99.90;;;;;;4207763;28;20028;-62
2021/07/27 03:22:30;;;;;;;19.52;10.60;;;21.10;99.90;;;;;;4208237;28;20091;-62
2021/07/27 03:24:31;;;;;;;15.30;8.57;;;21.10;99.90;;;;;;4207929;28;20117;-63
2021/07/27 03:26:32;;;;;;;14.63;8.93;;;21.00;99.90;;;;;;4207786;28;20373;-63
2021/07/27 03:28:33;;;;;;;14.80;10.45;;;21.00;99.90;;;;;;4207467;28;20527;-62
2021/07/27 03:30:34;;;;;;;15.88;10.05;;;21.00;99.90;;;;;;4207420;28;20518;-62
2021/07/27 03:32:36;;;;;;;15.10;9.38;;;21.00;99.90;;;;;;4207174;28;20020;-62
2021/07/27 03:34:37;;;;;;;15.68;10.15;;;21.00;99.90;;;;;;4208475;28;20040;-62
2021/07/27 03:36:39;;;;;;;15.88;9.60;;;21.00;99.90;;;;;;4207707;28;20028;-63
2021/07/27 03:38:40;;;;;;;18.00;9.07;;;21.00;99.90;;;;;;4208029;28;20081;-62
2021/07/27 03:40:41;;;;;;;12.05;8.98;;;21.00;99.90;;;;;;4207696;28;20521;-62
2021/07/27 03:42:43;;;;;;;16.13;9.43;;;21.00;99.90;;;;;;4207561;28;20105;-62
2021/07/27 03:44:46;;;;;;;19.83;8.98;;;21.10;99.90;;;;;;4207436;28;20040;-62
2021/07/27 03:46:47;;;;;;;14.95;9.90;;;21.10;99.90;;;;;;4207834;28;20044;-62
2021/07/27 03:48:49;;;;;;;18.98;9.75;;;21.20;99.90;;;;;;4207876;28;20024;-62
2021/07/27 03:50:50;;;;;;;18.33;10.00;;;21.20;99.90;;;;;;4207620;28;20073;-62
2021/07/27 03:52:51;;;;;;;17.95;10.48;;;21.30;99.90;;;;;;4207865;28;20088;-63
2021/07/27 03:54:52;;;;;;;23.50;11.15;;;21.30;99.90;;;;;;4207582;28;20028;-63
2021/07/27 03:56:54;;;;;;;18.35;10.82;;;21.20;99.90;;;;;;4207406;28;20048;-62
2021/07/27 03:58:55;;;;;;;26.10;11.70;;;21.10;99.90;;;;;;4207511;28;20108;-61
2021/07/27 04:00:56;;;;;;;20.77;11.88;;;20.90;99.90;;;;;;4206337;28;20594;-62
2021/07/27 04:02:57;;;;;;;20.00;11.80;;;20.70;99.90;;;;;;4207426;28;20045;-62
2021/07/27 04:04:58;;;;;;;20.63;11.35;;;20.60;99.90;;;;;;4207204;28;20086;-62
2021/07/27 04:06:59;;;;;;;17.80;11.05;;;20.50;99.90;;;;;;4207601;28;20040;-63
2021/07/27 04:09:00;;;;;;;18.73;11.50;;;20.50;99.90;;;;;;4207103;28;20077;-63
2021/07/27 04:11:05;;;;;;;19.30;11.05;;;20.50;99.90;;;;;;4206929;28;20032;-62
2021/07/27 04:13:06;;;;;;;25.08;12.55;;;20.50;99.90;;;;;;4206353;28;20032;-62
2021/07/27 04:15:08;;;;;;;21.40;12.20;;;20.60;99.90;;;;;;4207155;28;20743;-63
2021/07/27 04:17:09;;;;;;;28.67;11.98;;;20.60;99.90;;;;;;4206679;28;20842;-62
2021/07/27 04:19:10;;;;;;;20.95;11.90;;;20.60;99.90;;;;;;4206606;28;20084;-62
2021/07/27 04:21:12;;;;;;;17.88;11.63;;;20.60;99.90;;;;;;4207043;28;20036;-62
2021/07/27 04:23:16;;;;;;;19.00;12.55;;;20.60;99.90;;;;;;4206132;28;20504;-62
2021/07/27 04:25:17;;;;;;;20.90;12.48;;;20.60;99.90;;;;;;4206625;28;20081;-63
2021/07/27 04:27:24;;;;;;;27.88;14.25;;;20.60;99.90;;;;;;4206073;28;20024;-62
2021/07/27 04:29:25;;;;;;;23.23;13.93;;;20.60;99.90;;;;;;4206539;28;20094;-62
2021/07/27 04:31:26;;;;;;;31.27;12.82;;;20.50;99.90;;;;;;4206971;28;20032;-62
2021/07/27 04:33:27;;;;;;;26.88;13.63;;;20.60;99.90;;;;;;4205871;28;20097;-63
2021/07/27 04:35:28;;;;;;;23.02;13.88;;;20.60;99.90;;;;;;4205794;28;20036;-63
2021/07/27 04:37:29;;;;;;;25.15;13.07;;;20.70;99.90;;;;;;4206541;28;20052;-62
2021/07/27 04:39:30;;;;;;;24.42;14.57;;;20.70;99.90;;;;;;4189054;28;20032;-62
2021/07/27 04:41:34;;;;;;;23.60;13.30;;;20.70;99.90;;;;;;4221581;28;20032;-63
2021/07/27 04:43:35;;;;;;;20.92;14.68;;;20.70;99.90;;;;;;4221448;28;20097;-63
2021/07/27 04:45:36;;;;;;;25.80;14.18;;;20.80;99.90;;;;;;4221578;28;20084;-63
2021/07/27 04:47:37;;;;;;;26.40;15.38;;;20.70;99.90;;;;;;4221618;28;20028;-62
2021/07/27 04:49:39;;;;;;;29.52;16.15;;;20.70;99.90;;;;;;4216095;28;20104;-63
2021/07/27 04:51:40;;;;;;;28.92;16.67;;;20.70;99.90;;;;;;4218255;28;20086;-63
2021/07/27 04:53:41;;;;;;;26.98;16.55;;;20.70;99.90;;;;;;4212179;28;20032;-63
2021/07/27 04:55:42;;;;;;;31.90;16.05;;;20.60;99.90;;;;;;4205874;28;20024;-63
2021/07/27 04:57:43;;;;;;;29.52;15.23;;;20.60;99.90;;;;;;4205600;28;20104;-62
2021/07/27 04:59:44;;;;;;;24.48;14.38;;;20.70;99.90;;;;;;4205598;28;20097;-62
2021/07/27 05:01:45;;;;;;;23.30;13.68;;;20.80;99.90;;;;;;4205731;28;20361;-62
2021/07/27 05:03:47;;;;;;;25.55;14.90;;;20.90;99.90;;;;;;4205410;28;20035;-62
2021/07/27 05:05:48;;;;;;;25.23;13.48;;;21.10;99.90;;;;;;4206114;28;20819;-62
2021/07/27 05:07:49;;;;;;;26.48;14.60;;;21.10;99.90;;;;;;4206130;28;20086;-62
2021/07/27 05:09:50;;;;;;;24.35;14.18;;;21.20;99.90;;;;;;4205708;28;20089;-62
2021/07/27 05:11:51;;;;;;;19.80;13.13;;;21.30;99.90;;;;;;4205422;28;20430;-62
2021/07/27 05:13:54;;;;;;;29.08;12.15;;;21.30;99.90;;;;;;4206036;28;20032;-63
2021/07/27 05:15:55;;;;;;;19.70;13.13;;;21.30;99.90;;;;;;4205954;28;20111;-62
2021/07/27 05:18:00;;;;;;;22.77;14.18;;;21.30;99.90;;;;;;4205861;28;20129;-62
2021/07/27 05:20:02;;;;;;;22.58;12.57;;;21.30;99.90;;;;;;4205781;28;20044;-62
2021/07/27 05:22:03;;;;;;;18.85;12.23;;;21.40;99.90;;;;;;4206088;28;20040;-62
2021/07/27 05:24:05;;;;;;;19.75;12.52;;;21.40;99.90;;;;;;4206014;28;20056;-62
2021/07/27 05:26:06;;;;;;;27.73;18.83;;;21.50;99.90;;;;;;4205934;28;20094;-62
2021/07/27 05:28:08;;;;;;;23.38;13.02;;;21.50;99.90;;;;;;4205970;28;20733;-62
2021/07/27 05:30:12;;;;;;;19.60;11.32;;;21.50;99.90;;;;;;4205899;28;20024;-63
2021/07/27 05:32:13;;;;;;;17.70;10.95;;;21.50;99.90;;;;;;4205729;28;20119;-62
2021/07/27 05:34:14;;;;;;;22.65;12.63;;;21.60;99.90;;;;;;4205931;28;20065;-62
2021/07/27 05:36:15;;;;;;;20.38;12.32;;;21.80;99.90;;;;;;4205724;28;20024;-62
2021/07/27 05:38:16;;;;;;;29.02;11.77;;;22.30;99.90;;;;;;4205041;28;20036;-62
2021/07/27 05:40:18;;;;;;;16.13;10.35;;;22.80;99.90;;;;;;4204330;28;20531;-63
2021/07/27 05:42:19;;;;;;;24.42;10.27;;;23.30;99.90;;;;;;4205463;28;20117;-63
2021/07/27 05:44:24;;;;;;;23.30;9.77;;;23.70;99.90;;;;;;4205049;28;20093;-62
2021/07/27 05:46:25;;;;;;;21.33;10.65;;;23.90;99.90;;;;;;4205329;28;20560;-63
2021/07/27 05:48:27;;;;;;;17.95;10.52;;;24.30;99.90;;;;;;4205185;28;20058;-63
2021/07/27 05:50:28;;;;;;;22.58;11.13;;;24.60;99.90;;;;;;4205375;28;20379;-62
2021/07/27 05:52:29;;;;;;;20.85;9.68;;;24.90;99.90;;;;;;4203856;28;20240;-63
2021/07/27 05:54:30;;;;;;;33.03;11.73;;;25.40;99.90;;;;;;4202855;28;20097;-63
2021/07/27 05:56:32;;;;;;;32.03;14.73;;;25.70;99.90;;;;;;4197176;28;20024;-62
2021/07/27 05:58:34;;;;;;;21.50;10.57;;;25.80;99.90;;;;;;4193259;28;20494;-63
2021/07/27 06:00:35;;;;;;;15.93;10.15;;;25.90;99.90;;;;;;4191153;28;20165;-62
2021/07/27 06:02:36;;;;;;;29.42;13.50;;;25.90;99.90;;;;;;4200070;28;20504;-62
2021/07/27 06:04:38;;;;;;;29.30;12.80;;;26.20;99.90;;;;;;4205726;28;20081;-64
2021/07/27 06:06:39;;;;;;;25.55;11.68;;;26.40;99.90;;;;;;4204023;28;20463;-63
2021/07/27 06:08:40;;;;;;;34.03;11.57;;;26.30;99.90;;;;;;4205659;28;20024;-68
2021/07/27 06:10:41;;;;;;;37.20;13.95;;;26.60;99.90;;;;;;4205517;28;20028;-63
2021/07/27 06:12:42;;;;;;;22.60;11.45;;;26.80;99.90;;;;;;4205183;28;20070;-63
2021/07/27 06:14:43;;;;;;;21.70;12.52;;;27.20;99.90;;;;;;4205516;28;20036;-65
2021/07/27 06:16:45;;;;;;;23.05;10.05;;;27.20;99.90;;;;;;4203430;28;20040;-62
2021/07/27 06:18:47;;;;;;;24.83;11.95;;;27.50;99.90;;;;;;4205027;28;20074;-62
2021/07/27 06:20:48;;;;;;;26.23;12.07;;;;;;;;;;4205751;28;20898;-61
2021/07/27 06:22:49;;;;;;;32.75;13.27;;;;;;;;;;4205570;28;20062;-62
2021/07/27 06:24:51;;;;;;;28.70;13.85;;;;;;;;;;4204823;28;20020;-62
2021/07/27 06:26:52;;;;;;;24.55;11.57;;;;;;;;;;4205655;28;20086;-61
2021/07/27 06:28:54;;;;;;;23.48;9.90;;;;;;;;;;4204233;28;20109;-62
2021/07/27 06:30:55;;;;;;;17.42;8.50;;;;;;;;;;4205019;28;20020;-61
2021/07/27 06:32:57;;;;;;;20.20;8.43;;;;;;;;;;4204787;28;20482;-62
2021/07/27 06:34:59;;;;;;;21.67;9.85;;;;;;;;;;4205384;28;20020;-64
2021/07/27 06:37:01;;;;;;;18.27;9.82;;;;;;;;;;4205170;28;20036;-63
2021/07/27 06:39:03;;;;;;;23.33;8.55;;;;;;;;;;4205363;28;20036;-63
2021/07/27 06:41:09;;;;;;;15.25;9.23;;;28.10;99.90;;;;;;4204853;28;20032;-64
2021/07/27 06:43:10;;;;;;;18.75;8.38;;;26.60;99.90;;;;;;4203947;28;20109;-64
2021/07/27 06:45:12;;;;;;;14.30;10.27;;;26.40;99.90;;;;;;4204013;28;20045;-63
2021/07/27 06:47:13;;;;;;;14.93;9.45;;;26.30;99.90;;;;;;4205481;28;20032;-63
2021/07/27 06:49:15;;;;;;;15.95;9.35;;;26.10;99.90;;;;;;4205198;28;20036;-64
2021/07/27 06:51:17;;;;;;;16.50;10.15;;;25.90;99.90;;;;;;4206033;28;20073;-63
2021/07/27 06:53:19;;;;;;;14.25;9.93;;;25.80;99.90;;;;;;4207155;28;20040;-63
2021/07/27 06:55:20;;;;;;;19.38;11.20;;;25.70;99.90;;;;;;4208527;28;20488;-67
2021/07/27 06:57:21;;;;;;;21.25;10.80;;;25.60;99.90;;;;;;4206859;28;20037;-61
2021/07/27 06:59:25;;;;;;;13.40;10.18;;;25.50;99.90;;;;;;4208395;28;20036;-63
2021/07/27 07:01:26;;;;;;;18.95;10.05;;;25.70;99.90;;;;;;4207065;28;20032;-63
2021/07/27 07:03:27;;;;;;;23.23;11.65;;;25.80;99.90;;;;;;4208452;28;20024;-62
2021/07/27 07:05:28;;;;;;;14.23;9.20;;;26.00;99.90;;;;;;4207966;28;20089;-63
2021/07/27 07:07:29;;;;;;;14.30;9.43;;;26.20;99.90;;;;;;4207686;28;20020;-64
2021/07/27 07:09:30;;;;;;;13.55;9.65;;;26.40;99.90;;;;;;4207423;28;20484;-63
2021/07/27 07:11:32;;;;;;;20.58;11.23;;;26.60;99.90;;;;;;4199842;28;20047;-63
2021/07/27 07:13:33;;;;;;;20.20;9.73;;;26.80;99.90;;;;;;4207695;28;20036;-63
2021/07/27 07:15:34;;;;;;;19.55;10.65;;;27.00;99.90;;;;;;4208034;28;20069;-63
2021/07/27 07:17:35;;;;;;;19.27;11.40;;;27.40;99.90;;;;;;4207138;28;20822;-63
2021/07/27 07:19:36;;;;;;;21.85;11.52;;;27.50;99.90;;;;;;4208294;28;20089;-63
2021/07/27 07:21:37;;;;;;;16.00;10.38;;;27.40;99.90;;;;;;4207866;28;20383;-62
2021/07/27 07:23:39;;;;;;;19.95;10.68;;;27.60;99.90;;;;;;4207891;28;20032;-62
2021/07/27 07:25:43;;;;;;;15.15;10.38;;;27.70;99.90;;;;;;4208235;28;20874;-63
2021/07/27 07:27:44;;;;;;;17.42;11.00;;;27.90;99.90;;;;;;4207891;28;20028;-63
2021/07/27 07:29:45;;;;;;;23.20;10.45;;;28.00;99.90;;;;;;4207420;28;20484;-63
2021/07/27 07:31:46;;;;;;;21.30;10.63;;;28.00;99.90;;;;;;4207951;28;20036;-62
2021/07/27 07:33:47;;;;;;;14.73;9.60;;;27.80;99.90;;;;;;4208322;28;20036;-63
2021/07/27 07:35:48;;;;;;;17.90;10.40;;;27.80;99.90;;;;;;4208262;28;20093;-64
2021/07/27 07:37:49;;;;;;;15.65;9.45;;;28.00;99.90;;;;;;4208032;28;20028;-62
2021/07/27 07:39:50;;;;;;;14.55;9.23;;;27.90;99.90;;;;;;4207576;28;20064;-63
2021/07/27 07:41:51;;;;;;;15.98;8.73;;;27.90;99.90;;;;;;4207430;28;20094;-63
2021/07/27 07:43:53;;;;;;;13.80;9.50;;;27.70;99.90;;;;;;4207786;28;20065;-63
2021/07/27 07:45:54;;;;;;;15.05;8.45;;;27.70;99.90;;;;;;4207531;28;20065;-62
2021/07/27 07:47:55;;;;;;;12.15;8.77;;;27.90;99.90;;;;;;4207773;28;20081;-63
2021/07/27 07:49:59;;;;;;;20.60;8.75;;;28.10;99.90;;;;;;4207158;28;20077;-63
2021/07/27 07:52:01;;;;;;;14.05;8.73;;;28.30;99.90;;;;;;4207652;28;20020;-64
2021/07/27 07:54:02;;;;;;;13.20;9.43;;;28.40;99.90;;;;;;4207298;28;20992;-63
2021/07/27 07:56:08;;;;;;;16.75;10.60;;;28.30;99.90;;;;;;4206467;28;20480;-63
2021/07/27 07:58:09;;;;;;;22.23;8.45;;;28.10;99.90;;;;;;4207235;28;20016;-63
2021/07/27 08:00:11;;;;;;;13.52;7.75;;;28.10;99.90;;;;;;4207457;28;20020;-63
2021/07/27 08:02:12;;;;;;;14.27;8.90;;;28.00;99.90;;;;;;4206761;28;20036;-61
2021/07/27 08:04:13;;;;;;;16.55;8.90;;;28.10;99.90;;;;;;4207011;28;20098;-62
2021/07/27 08:06:14;;;;;;;12.88;8.93;;;28.30;99.90;;;;;;4207145;28;20852;-64
2021/07/27 08:08:16;;;;;;;19.65;9.55;;;28.50;99.90;;;;;;4206666;28;20044;-61
2021/07/27 08:10:17;;;;;;;12.27;7.82;;;28.60;99.90;;;;;;4202523;28;20439;-61
2021/07/27 08:12:18;;;;;;;16.40;8.88;;;28.60;99.90;;;;;;4206038;28;20081;-61
2021/07/27 08:14:20;;;;;;;13.73;8.05;;;28.70;99.90;;;;;;4206338;28;20468;-61
2021/07/27 08:16:21;;;;;;;13.55;8.13;;;28.90;99.90;;;;;;4206476;28;20040;-61
2021/07/27 08:18:23;;;;;;;14.55;8.80;;;29.10;99.90;;;;;;4206379;28;20032;-61
2021/07/27 08:20:25;;;;;;;17.95;8.65;;;29.20;99.90;;;;;;4204432;28;20094;-62
2021/07/27 08:22:26;;;;;;;15.98;8.15;;;29.20;99.90;;;;;;4207073;28;20580;-62
2021/07/27 08:24:27;;;;;;;10.77;6.22;;;29.20;99.90;;;;;;4206884;28;20028;-62
2021/07/27 08:26:28;;;;;;;17.15;6.75;;;29.30;99.90;;;;;;4206425;28;20040;-62
2021/07/27 08:28:29;;;;;;;15.20;7.70;;;29.50;99.90;;;;;;4206476;28;20047;-63
2021/07/27 08:30:30;;;;;;;18.42;7.55;;;29.60;99.90;;;;;;4205691;28;20139;-63
2021/07/27 08:32:31;;;;;;;15.18;8.00;;;29.90;99.90;;;;;;4206723;28;20028;-61
2021/07/27 08:34:44;;;;;;;17.30;7.72;;;29.90;99.90;;;;;;4206544;28;20113;-63
2021/07/27 08:36:45;;;;;;;17.60;7.38;;;30.10;99.90;;;;;;4206500;28;20024;-62
2021/07/27 08:38:46;;;;;;;13.07;6.00;;;30.10;99.80;;;;;;4206421;28;20090;-62
2021/07/27 08:40:50;;;;;;;13.93;6.68;;;30.00;99.40;;;;;;4205827;28;20036;-62
2021/07/27 08:42:51;;;;;;;13.48;6.97;;;30.00;99.30;;;;;;4206747;28;20051;-65
2021/07/27 08:44:54;;;;;;;10.50;6.68;;;30.00;99.20;;;;;;4205861;28;20093;-63
2021/07/27 08:46:56;;;;;;;15.05;5.90;;;30.00;99.30;;;;;;4206559;28;20109;-61
2021/07/27 08:48:58;;;;;;;15.68;6.22;;;30.10;99.00;;;;;;4204671;28;20032;-61
2021/07/27 08:51:00;;;;;;;15.45;5.40;;;30.00;98.80;;;;;;4206254;28;20041;-61
2021/07/27 08:53:01;;;;;;;11.35;5.95;;;30.20;98.60;;;;;;4206356;28;20027;-61
2021/07/27 08:55:08;;;;;;;13.52;5.10;;;30.30;97.80;;;;;;4206164;28;20028;-61
2021/07/27 08:57:14;;;;;;;8.43;4.43;;;30.50;97.10;;;;;;4205614;28;20028;-62
2021/07/27 08:59:16;;;;;;;9.50;4.63;;;30.60;96.90;;;;;;4205117;28;20575;-62
2021/07/27 09:01:24;;;;;;;14.00;5.40;;;30.70;96.70;;;;;;4206046;28;20089;-62
2021/07/27 09:03:25;;;;;;;15.55;5.38;;;31.00;96.10;;;;;;4206219;28;20044;-62
2021/07/27 09:05:26;;;;;;;18.42;5.45;;;31.10;95.80;;;;;;4205564;28;20491;-61
2021/07/27 09:07:27;;;;;;;12.50;5.72;;;31.10;95.30;;;;;;4205457;28;20032;-62
2021/07/27 09:09:33;;;;;;;15.15;5.60;;;30.90;95.30;;;;;;4205643;28;20028;-62
2021/07/27 09:11:45;;;;;;;16.40;5.43;;;30.80;95.30;;;;;;4205837;28;20028;-62
2021/07/27 09:13:56;;;;;;;20.35;5.45;;;30.80;94.10;;;;;;4205297;28;20032;-62
2021/07/27 09:15:58;;;;;;;14.85;5.50;;;30.60;94.50;;;;;;4205850;28;20047;-62
2021/07/27 09:18:01;;;;;;;13.32;5.07;;;30.80;95.00;;;;;;4206303;28;20028;-62
2021/07/27 09:20:02;;;;;;;11.88;5.20;;;30.70;94.10;;;;;;4205937;28;20096;-62
2021/07/27 09:22:07;;;;;;;17.83;5.30;;;30.70;94.20;;;;;;4205816;28;20089;-61
2021/07/27 09:24:20;;;;;;;17.98;6.15;;;30.70;93.80;;;;;;4206654;28;20089;-63
2021/07/27 09:26:21;;;;;;;14.07;4.82;;;30.80;93.60;;;;;;4206125;28;20086;-62
2021/07/27 09:28:24;;;;;;;13.70;5.18;;;30.90;93.30;;;;;;4205617;28;20077;-62
2021/07/27 09:30:25;;;;;;;14.32;4.72;;;31.10;93.30;;;;;;4205064;28;20028;-62
2021/07/27 09:32:26;;;;;;;13.25;4.72;;;31.20;92.70;;;;;;4205688;28;20024;-62
2021/07/27 09:34:28;;;;;;;20.30;4.82;;;31.20;92.60;;;;;;4206110;28;20024;-62
2021/07/27 09:36:30;;;;;;;11.55;5.03;;;31.20;92.40;;;;;;4206043;28;20563;-62
2021/07/27 09:38:32;;;;;;;10.02;4.63;;;31.20;92.50;;;;;;4205863;28;20503;-63
2021/07/27 09:40:54;;;;;;;11.38;5.18;;;31.20;92.70;;;;;;4205510;28;20024;-61
2021/07/27 09:42:56;;;;;;;18.08;4.75;;;31.30;92.70;;;;;;4204840;28;20105;-61
2021/07/27 09:44:57;;;;;;;13.80;4.93;;;31.30;92.30;;;;;;4205620;28;20093;-63
2021/07/27 09:47:01;;;;;;;14.18;4.90;;;31.50;92.40;;;;;;4205140;28;20032;-61
2021/07/27 09:49:02;;;;;;;10.63;4.55;;;31.50;92.40;;;;;;4205434;28;20024;-63
2021/07/27 09:51:03;;;;;;;12.23;4.80;;;31.50;92.30;;;;;;4204375;28;20120;-61
2021/07/27 09:53:05;;;;;;;13.32;4.70;;;31.40;92.30;;;;;;4203886;28;20020;-61
2021/07/27 09:55:07;;;;;;;18.00;4.63;;;31.50;92.10;;;;;;4188007;28;20032;-61
2021/07/27 09:57:09;;;;;;;11.60;5.57;;;31.40;92.10;;;;;;4193550;28;20028;-63
2021/07/27 09:59:10;;;;;;;10.95;5.35;;;31.40;92.20;;;;;;4205205;28;20044;-62
2021/07/27 10:01:21;;;;;;;16.50;6.43;;;31.50;92.10;;;;;;4205310;28;20035;-61
2021/07/27 10:03:25;;;;;;;18.90;6.32;;;31.60;92.00;;;;;;4205098;28;20040;-63
2021/07/27 10:05:27;;;;;;;14.15;4.78;;;31.60;92.00;;;;;;4204805;28;20066;-62
2021/07/27 10:07:29;;;;;;;12.32;4.45;;;31.80;91.00;;;;;;4204164;28;20518;-62
2021/07/27 10:09:32;;;;;;;14.55;4.47;;;32.00;87.60;;;;;;4205324;28;20373;-61
2021/07/27 10:11:36;;;;;;;10.68;4.60;;;32.10;86.70;;;;;;4205497;28;20081;-62
2021/07/27 10:13:45;;;;;;;14.55;4.18;;;32.20;85.70;;;;;;4205616;28;20085;-62
2021/07/27 10:15:47;;;;;;;11.65;4.25;;;32.30;85.00;;;;;;4205110;28;20032;-62
2021/07/27 10:17:52;;;;;;;10.32;4.35;;;32.50;84.30;;;;;;4205970;28;20929;-62
2021/07/27 10:19:56;;;;;;;12.25;3.90;;;32.50;82.60;;;;;;4205817;28;20055;-62
2021/07/27 10:22:09;;;;;;;12.95;5.50;;;32.50;82.10;;;;;;4205507;28;20078;-62
2021/07/27 10:24:14;;;;;;;7.57;4.30;;;32.70;80.90;;;;;;4205670;28;20024;-62
2021/07/27 10:26:25;;;;;;;13.07;4.53;;;32.60;80.80;;;;;;4206533;28;20049;-61
2021/07/27 10:28:27;;;;;;;17.30;4.55;;;32.60;78.60;;;;;;4206141;28;20487;-62
2021/07/27 10:30:38;;;;;;;12.65;4.53;;;32.70;80.20;;;;;;4209231;28;20044;-63
2021/07/27 10:32:50;;;;;;;8.45;4.43;;;32.80;79.60;;;;;;4208944;28;20077;-63
2021/07/27 10:34:52;;;;;;;17.00;5.47;;;33.00;80.40;;;;;;4208984;28;20016;-61
2021/07/27 10:36:54;;;;;;;12.23;4.57;;;33.00;79.20;;;;;;4207359;28;20036;-63
2021/07/27 10:39:11;;;;;;;10.60;4.28;;;33.10;78.70;;;;;;4208173;28;20016;-63
2021/07/27 10:41:14;;;;;;;14.75;4.07;;;33.20;78.20;;;;;;4208659;28;20028;-63
2021/07/27 10:43:25;;;;;;;9.50;4.28;;;33.30;78.60;;;;;;4208390;28;20098;-63
2021/07/27 10:45:26;;;;;;;12.48;4.60;;;33.30;78.40;;;;;;4206709;28;20077;-63